createdAt,value
2023-03-19T00:00:12.460Z,15.80
2023-03-19T00:02:51.335Z,16.50
2023-03-19T00:05:42.229Z,16.50
2023-03-19T00:08:18.668Z,15.60
2023-03-19T00:11:04.662Z,15.68
2023-03-19T00:13:41.148Z,16.02
2023-03-19T00:16:29.979Z,15.60
2023-03-19T00:19:11.141Z,14.85
2023-03-19T00:21:39.750Z,13.82
2023-03-19T00:24:17.806Z,14.25
2023-03-19T00:29:44.410Z,13.50
2023-03-19T00:32:23.186Z,12.35
2023-03-19T00:35:06.728Z,11.77
2023-03-19T00:37:59.006Z,10.90
2023-03-19T00:40:38.487Z,11.43
2023-03-19T00:43:19.344Z,9.23
2023-03-19T00:46:03.851Z,9.50
2023-03-19T00:48:42.116Z,7.78
2023-03-19T00:51:34.105Z,8.55
2023-03-19T00:54:21.944Z,6.78
2023-03-19T00:56:53.827Z,6.30
2023-03-19T00:59:39.134Z,5.93
2023-03-19T01:02:19.437Z,5.65
2023-03-19T01:05:12.364Z,5.32
2023-03-19T01:07:54.918Z,4.47
2023-03-19T01:10:41.976Z,4.88
2023-03-19T01:13:15.828Z,4.55
2023-03-19T01:15:58.819Z,4.20
2023-03-19T01:18:28.460Z,4.22
2023-03-19T01:21:13.277Z,4.32
2023-03-19T01:23:46.174Z,4.03
2023-03-19T01:26:30.109Z,4.63
2023-03-19T01:29:10.696Z,3.88
2023-03-19T01:31:52.274Z,3.90
2023-03-19T01:34:29.701Z,3.78
2023-03-19T01:37:19.579Z,3.42
2023-03-19T01:40:29.271Z,3.70
2023-03-19T01:43:39.162Z,5.03
2023-03-19T01:46:19.297Z,3.40
2023-03-19T01:49:13.488Z,4.15
2023-03-19T01:51:46.192Z,4.90
2023-03-19T01:58:05.239Z,3.40
2023-03-19T02:00:49.569Z,3.85
2023-03-19T02:07:08.863Z,3.58
2023-03-19T02:09:48.118Z,5.05
2023-03-19T02:12:32.995Z,3.60
2023-03-19T02:15:22.130Z,3.22
2023-03-19T02:17:53.889Z,4.68
2023-03-19T02:21:01.455Z,3.63
2023-03-19T02:24:03.855Z,3.58
2023-03-19T02:26:46.043Z,3.65
2023-03-19T02:29:18.346Z,3.72
2023-03-19T02:32:03.266Z,3.28
2023-03-19T02:38:02.906Z,4.53
2023-03-19T02:40:56.377Z,4.30
2023-03-19T02:46:29.240Z,3.15
2023-03-19T02:49:12.535Z,3.15
2023-03-19T02:55:00.112Z,3.53
2023-03-19T02:57:47.969Z,3.55
2023-03-19T03:00:35.453Z,3.53
2023-03-19T03:03:31.542Z,4.15
2023-03-19T03:06:30.545Z,4.38
2023-03-19T03:09:07.869Z,3.20
2023-03-19T03:11:40.600Z,3.90
2023-03-19T03:14:29.005Z,3.47
2023-03-19T03:17:06.450Z,5.30
2023-03-19T03:19:42.293Z,3.03
2023-03-19T03:22:22.551Z,3.47
2023-03-19T03:25:15.529Z,3.75
2023-03-19T03:28:06.665Z,4.32
2023-03-19T03:33:38.298Z,3.30
2023-03-19T03:36:27.530Z,3.63
2023-03-19T03:42:23.531Z,4.00
2023-03-19T03:48:03.660Z,4.53
2023-03-19T03:50:42.721Z,3.53
2023-03-19T03:53:22.724Z,3.63
2023-03-19T03:56:09.722Z,3.88
2023-03-19T03:58:50.203Z,3.90
2023-03-19T04:01:30.716Z,3.67
2023-03-19T04:04:11.487Z,3.80
2023-03-19T04:06:53.614Z,4.65
2023-03-19T04:09:36.408Z,4.22
2023-03-19T04:12:45.870Z,4.07
2023-03-19T04:15:25.908Z,4.15
2023-03-19T04:18:02.944Z,4.50
2023-03-19T04:23:28.121Z,4.85
2023-03-19T04:26:25.535Z,4.72
2023-03-19T04:28:59.803Z,4.95
2023-03-19T04:31:45.459Z,4.93
2023-03-19T04:34:17.385Z,5.20
2023-03-19T04:37:00.775Z,5.68
2023-03-19T04:39:38.222Z,5.00
2023-03-19T04:42:33.899Z,5.25
2023-03-19T04:45:17.547Z,5.88
2023-03-19T04:47:52.704Z,5.63
2023-03-19T04:50:23.922Z,5.88
2023-03-19T04:53:01.742Z,6.10
2023-03-19T04:55:29.087Z,7.03
2023-03-19T04:58:06.757Z,6.57
2023-03-19T05:00:40.652Z,6.60
2023-03-19T05:03:14.662Z,7.47
2023-03-19T05:05:41.463Z,7.63
2023-03-19T05:08:15.580Z,7.15
2023-03-19T05:10:48.482Z,7.47
2023-03-19T05:13:15.205Z,8.77
2023-03-19T05:15:53.260Z,8.30
2023-03-19T05:18:23.177Z,8.73
2023-03-19T05:20:56.693Z,9.00
2023-03-19T05:23:24.179Z,8.73
2023-03-19T05:25:58.615Z,8.27
2023-03-19T05:28:25.630Z,8.93
2023-03-19T05:31:01.699Z,9.32
2023-03-19T05:33:28.813Z,9.38
2023-03-19T05:36:02.701Z,9.95
2023-03-19T05:38:35.656Z,8.68
2023-03-19T05:41:15.582Z,10.45
2023-03-19T05:43:49.608Z,10.52
2023-03-19T05:46:16.668Z,10.48
2023-03-19T05:48:53.296Z,9.77
2023-03-19T05:51:26.744Z,10.25
2023-03-19T05:54:00.602Z,11.27
2023-03-19T05:56:28.183Z,10.70
2023-03-19T05:59:01.603Z,10.68
2023-03-19T06:01:38.350Z,10.50
2023-03-19T06:04:11.828Z,13.50
2023-03-19T06:06:38.885Z,10.90
2023-03-19T06:09:12.583Z,10.98
2023-03-19T06:11:47.670Z,10.80
2023-03-19T06:14:21.614Z,10.45
2023-03-19T06:16:49.050Z,10.77
2023-03-19T06:19:25.294Z,10.48
2023-03-19T06:21:52.804Z,10.73
2023-03-19T06:24:26.557Z,10.27
2023-03-19T06:27:09.462Z,10.57
2023-03-19T06:29:43.757Z,11.02
2023-03-19T06:32:17.646Z,11.00
2023-03-19T06:34:51.746Z,10.70
2023-03-19T06:37:19.704Z,11.18
2023-03-19T06:40:01.613Z,11.55
2023-03-19T06:42:28.651Z,11.30
2023-03-19T06:45:02.616Z,11.10
2023-03-19T06:47:29.788Z,11.05
2023-03-19T06:49:56.816Z,11.02
2023-03-19T06:52:47.702Z,10.55
2023-03-19T06:55:21.204Z,10.75
2023-03-19T06:57:58.824Z,9.93
2023-03-19T07:00:25.970Z,10.20
2023-03-19T07:02:59.729Z,11.32
2023-03-19T07:05:27.056Z,10.13
2023-03-19T07:07:54.203Z,11.63
2023-03-19T07:10:28.890Z,10.90
2023-03-19T07:12:56.292Z,11.30
2023-03-19T07:15:30.777Z,11.93
2023-03-19T07:18:04.839Z,11.32
2023-03-19T07:20:32.345Z,11.65
2023-03-19T07:23:06.721Z,11.07
2023-03-19T07:25:40.873Z,11.90
2023-03-19T07:28:15.712Z,11.27
2023-03-19T07:30:49.673Z,11.80
2023-03-19T07:33:23.718Z,12.57
2023-03-19T07:35:54.099Z,11.65
2023-03-19T07:38:28.660Z,11.52
2023-03-19T07:41:08.133Z,12.73
2023-03-19T07:43:41.776Z,12.18
2023-03-19T07:46:20.069Z,12.48
2023-03-19T07:48:58.802Z,12.82
2023-03-19T07:51:33.744Z,13.88
2023-03-19T07:54:14.987Z,12.60
2023-03-19T07:56:42.553Z,13.15
2023-03-19T07:59:16.616Z,12.68
2023-03-19T08:01:50.934Z,12.88
2023-03-19T08:04:21.208Z,14.82
2023-03-19T08:06:54.796Z,14.30
2023-03-19T08:09:25.423Z,13.50
2023-03-19T08:11:59.900Z,13.68
2023-03-19T08:14:27.404Z,14.48
2023-03-19T08:17:00.939Z,14.40
2023-03-19T08:19:28.466Z,12.70
2023-03-19T08:22:08.848Z,12.88
2023-03-19T08:24:36.832Z,13.10
2023-03-19T08:27:10.705Z,11.05
2023-03-19T08:29:40.865Z,12.25
2023-03-19T08:32:09.091Z,13.15
2023-03-19T08:34:49.454Z,11.77
2023-03-19T08:37:23.844Z,12.20
2023-03-19T08:40:15.780Z,11.68
2023-03-19T08:42:45.554Z,11.57
2023-03-19T08:45:24.548Z,11.43
2023-03-19T08:47:52.191Z,12.68
2023-03-19T08:50:29.020Z,11.35
2023-03-19T08:53:00.010Z,11.30
2023-03-19T08:55:42.621Z,10.82
2023-03-19T08:58:16.376Z,11.82
2023-03-19T09:00:53.021Z,11.18
2023-03-19T09:03:22.357Z,11.10
2023-03-19T09:06:01.187Z,11.73
2023-03-19T09:08:31.757Z,12.35
2023-03-19T09:11:26.603Z,11.32
2023-03-19T09:14:02.215Z,10.77
2023-03-19T09:16:42.824Z,11.40
2023-03-19T09:19:20.824Z,10.30
2023-03-19T09:21:51.345Z,10.48
2023-03-19T09:24:34.052Z,9.85
2023-03-19T09:27:08.828Z,10.00
2023-03-19T09:29:42.750Z,10.15
2023-03-19T09:32:26.581Z,10.18
2023-03-19T09:35:01.058Z,9.38
2023-03-19T09:37:34.787Z,9.20
2023-03-19T09:40:09.730Z,10.48
2023-03-19T09:43:04.904Z,9.25
2023-03-19T09:45:39.057Z,9.38
2023-03-19T09:48:20.641Z,10.07
2023-03-19T09:51:00.013Z,8.13
2023-03-19T09:53:56.776Z,8.43
2023-03-19T09:56:44.895Z,7.32
2023-03-19T09:59:15.140Z,7.85
2023-03-19T10:02:42.134Z,7.10
2023-03-19T10:05:27.003Z,7.05
2023-03-19T10:08:23.642Z,6.15
2023-03-19T10:11:06.866Z,6.35
2023-03-19T10:13:58.248Z,8.00
2023-03-19T10:16:45.759Z,8.50
2023-03-19T10:19:25.125Z,7.35
2023-03-19T10:22:14.992Z,6.95
2023-03-19T10:24:58.244Z,7.30
2023-03-19T10:27:38.947Z,6.00
2023-03-19T10:30:23.390Z,6.72
2023-03-19T10:33:30.901Z,6.05
2023-03-19T10:36:19.316Z,5.35
2023-03-19T10:39:01.013Z,5.45
2023-03-19T10:42:19.662Z,4.90
2023-03-19T10:44:58.958Z,5.07
2023-03-19T10:47:34.411Z,4.70
2023-03-19T10:50:45.759Z,5.15
2023-03-19T10:53:33.592Z,5.53
2023-03-19T10:56:11.228Z,5.53
2023-03-19T10:58:49.034Z,4.80
2023-03-19T11:01:26.926Z,4.88
2023-03-19T11:04:02.939Z,4.32
2023-03-19T11:06:46.045Z,5.38
2023-03-19T11:09:47.251Z,4.75
2023-03-19T11:12:42.141Z,4.97
2023-03-19T11:15:38.295Z,4.85
2023-03-19T11:18:28.227Z,4.05
2023-03-19T11:21:34.262Z,5.10
2023-03-19T11:24:13.357Z,4.10
2023-03-19T11:26:48.239Z,4.38
2023-03-19T11:29:25.138Z,3.95
2023-03-19T11:32:27.918Z,5.43
2023-03-19T11:35:05.586Z,4.80
2023-03-19T11:38:23.556Z,3.70
2023-03-19T11:41:36.091Z,3.70
2023-03-19T11:44:21.993Z,3.92
2023-03-19T11:47:26.439Z,4.45
2023-03-19T11:50:38.035Z,4.47
2023-03-19T11:53:30.741Z,3.97
2023-03-19T11:56:47.826Z,11.93
2023-03-19T11:59:37.494Z,3.67
2023-03-19T12:02:38.461Z,3.92
2023-03-19T12:05:37.985Z,3.60
2023-03-19T12:08:43.776Z,3.60
2023-03-19T12:11:41.502Z,3.83
2023-03-19T12:14:32.904Z,3.92
2023-03-19T12:17:18.884Z,3.63
2023-03-19T12:20:27.443Z,3.22
2023-03-19T12:23:24.632Z,3.30
2023-03-19T12:26:36.410Z,3.13
2023-03-19T12:29:44.153Z,2.70
2023-03-19T12:32:44.007Z,3.95
2023-03-19T12:35:40.650Z,3.10
2023-03-19T12:38:40.149Z,3.65
2023-03-19T12:41:25.048Z,2.60
2023-03-19T12:44:10.373Z,3.55
2023-03-19T12:46:50.747Z,3.13
2023-03-19T12:49:27.818Z,3.47
2023-03-19T12:52:31.381Z,2.60
2023-03-19T12:55:26.794Z,2.80
2023-03-19T12:58:23.352Z,2.92
2023-03-19T13:01:17.420Z,2.80
2023-03-19T13:04:02.176Z,5.55
2023-03-19T13:06:37.899Z,3.17
2023-03-19T13:09:32.531Z,2.67
2023-03-19T13:12:20.377Z,3.15
2023-03-19T13:15:45.810Z,3.63
2023-03-19T13:18:37.625Z,2.85
2023-03-19T13:25:23.969Z,3.30
2023-03-19T13:27:56.792Z,2.80
2023-03-19T13:47:08.881Z,3.55
2023-03-19T13:49:35.855Z,2.40
2023-03-19T13:52:31.840Z,2.90
2023-03-19T13:55:34.741Z,2.50
2023-03-19T13:58:23.772Z,4.40
2023-03-19T14:00:58.227Z,2.60
2023-03-19T14:03:43.796Z,2.72
2023-03-19T14:06:38.982Z,2.38
2023-03-19T14:09:32.767Z,2.60
2023-03-19T14:12:18.085Z,2.42
2023-03-19T14:14:56.766Z,2.53
2023-03-19T14:17:49.534Z,4.78
2023-03-19T14:20:20.580Z,3.35
2023-03-19T14:23:15.778Z,2.80
2023-03-19T14:26:20.316Z,2.53
2023-03-19T14:29:01.800Z,2.50
2023-03-19T14:32:01.640Z,2.63
2023-03-19T14:34:46.775Z,3.00
2023-03-19T14:37:25.598Z,3.17
2023-03-19T14:40:05.817Z,2.55
2023-03-19T14:42:42.838Z,2.80
2023-03-19T14:45:46.969Z,2.80
2023-03-19T14:48:57.837Z,3.90
2023-03-19T14:51:39.850Z,3.15
2023-03-19T14:54:42.418Z,3.63
2023-03-19T14:57:22.921Z,8.30
2023-03-19T14:59:50.730Z,7.20
2023-03-19T15:02:49.852Z,7.32
2023-03-19T15:05:37.302Z,8.93
2023-03-19T15:08:13.841Z,8.02
2023-03-19T15:11:05.439Z,7.60
2023-03-19T15:13:51.834Z,8.90
2023-03-19T15:16:21.512Z,9.95
2023-03-19T15:18:55.805Z,10.20
2023-03-19T15:21:22.784Z,9.68
2023-03-19T15:23:55.836Z,9.30
2023-03-19T15:26:42.813Z,9.10
2023-03-19T15:29:12.414Z,10.02
2023-03-19T15:32:04.904Z,10.88
2023-03-19T15:34:32.674Z,13.07
2023-03-19T15:37:18.878Z,14.55
2023-03-19T15:39:55.458Z,13.40
2023-03-19T15:42:30.863Z,15.60
2023-03-19T15:45:15.855Z,17.35
2023-03-19T15:48:06.958Z,15.27
2023-03-19T15:50:37.328Z,17.05
2023-03-19T15:53:15.837Z,15.70
2023-03-19T15:55:43.232Z,18.45
2023-03-19T15:58:22.848Z,16.60
2023-03-19T16:00:53.243Z,17.85
2023-03-19T16:03:38.861Z,17.40
2023-03-19T16:06:19.850Z,18.42
2023-03-19T16:08:56.025Z,18.40
2023-03-19T16:11:44.892Z,16.35
2023-03-19T16:14:25.562Z,16.60
2023-03-19T16:17:06.922Z,17.77
2023-03-19T16:19:56.184Z,17.88
2023-03-19T16:22:40.951Z,18.55
2023-03-19T16:25:17.096Z,16.65
2023-03-19T16:27:50.998Z,17.45
2023-03-19T16:30:23.808Z,18.08
2023-03-19T16:33:11.853Z,17.98
2023-03-19T16:35:38.755Z,16.40
2023-03-19T16:38:34.920Z,18.02
2023-03-19T16:41:29.901Z,16.98
2023-03-19T16:44:17.966Z,16.85
2023-03-19T16:46:52.046Z,16.98
2023-03-19T16:49:27.899Z,15.88
2023-03-19T16:51:54.652Z,17.88
2023-03-19T16:54:31.035Z,20.00
2023-03-19T16:56:58.994Z,19.60
2023-03-19T16:59:38.075Z,21.90
2023-03-19T17:02:22.132Z,20.00
2023-03-19T17:04:55.980Z,18.80
2023-03-19T17:07:28.953Z,19.85
2023-03-19T17:10:05.000Z,17.63
2023-03-19T17:12:31.724Z,16.65
2023-03-19T17:15:04.935Z,16.83
2023-03-19T17:17:31.714Z,18.23
2023-03-19T17:20:04.993Z,18.50
2023-03-19T17:22:31.835Z,18.65
2023-03-19T17:25:04.926Z,15.63
2023-03-19T17:27:34.576Z,17.58
2023-03-19T17:30:07.933Z,13.80
2023-03-19T17:32:34.833Z,15.60
2023-03-19T17:35:07.955Z,15.02
2023-03-19T17:37:42.918Z,15.85
2023-03-19T17:40:25.932Z,15.68
2023-03-19T17:42:53.829Z,15.25
2023-03-19T17:45:41.930Z,15.82
2023-03-19T17:48:24.952Z,15.90
2023-03-19T17:50:54.619Z,15.60
2023-03-19T17:53:27.875Z,16.90
2023-03-19T17:55:54.511Z,15.43
2023-03-19T17:58:28.873Z,16.38
2023-03-19T18:00:55.760Z,17.23
2023-03-19T18:03:31.943Z,17.65
2023-03-19T18:05:58.608Z,18.55
2023-03-19T18:08:31.925Z,17.33
2023-03-19T18:10:58.550Z,17.63
2023-03-19T18:13:31.878Z,16.88
2023-03-19T18:15:58.678Z,15.70
2023-03-19T18:18:25.848Z,16.48
2023-03-19T18:21:00.665Z,18.00
2023-03-19T18:23:33.897Z,18.33
2023-03-19T18:26:00.655Z,17.33
2023-03-19T18:28:34.007Z,16.90
2023-03-19T18:31:01.206Z,18.60
2023-03-19T18:33:37.990Z,17.90
2023-03-19T18:36:10.922Z,18.88
2023-03-19T18:38:37.588Z,18.05
2023-03-19T18:41:10.927Z,17.27
2023-03-19T18:43:37.574Z,17.02
2023-03-19T18:46:13.006Z,17.35
2023-03-19T18:48:46.514Z,18.05
2023-03-19T18:51:19.938Z,16.52
2023-03-19T18:53:46.694Z,17.67
2023-03-19T18:56:29.975Z,17.85
2023-03-19T18:59:04.959Z,18.92
2023-03-19T19:01:32.645Z,20.75
2023-03-19T19:04:06.025Z,20.42
2023-03-19T19:06:46.876Z,19.30
2023-03-19T19:09:22.088Z,17.98
2023-03-19T19:11:49.275Z,17.58
2023-03-19T19:14:26.944Z,15.65
2023-03-19T19:17:00.069Z,20.55
2023-03-19T19:19:34.137Z,19.92
2023-03-19T19:22:00.879Z,18.67
2023-03-19T19:24:40.970Z,19.90
2023-03-19T19:27:21.939Z,23.05
2023-03-19T19:29:56.011Z,20.90
2023-03-19T19:32:25.059Z,20.95
2023-03-19T19:34:59.019Z,19.60
2023-03-19T19:37:25.963Z,19.17
2023-03-19T19:39:58.966Z,17.20
2023-03-19T19:42:32.938Z,19.23
2023-03-19T19:45:06.083Z,19.73
2023-03-19T19:47:41.967Z,20.05
2023-03-19T19:50:23.945Z,20.08
2023-03-19T19:52:57.000Z,21.27
2023-03-19T19:55:33.115Z,21.77
2023-03-19T19:58:08.661Z,20.55
2023-03-19T20:01:02.226Z,19.98
2023-03-19T20:03:32.318Z,23.38
2023-03-19T20:06:06.987Z,22.00
2023-03-19T20:08:33.695Z,23.98
2023-03-19T20:11:06.971Z,26.73
2023-03-19T20:13:34.867Z,26.10
2023-03-19T20:16:03.112Z,25.40
2023-03-19T20:18:39.964Z,23.00
2023-03-19T20:21:07.488Z,26.65
2023-03-19T20:23:41.060Z,23.73
2023-03-19T20:26:13.101Z,27.02
2023-03-19T20:28:46.941Z,31.73
2023-03-19T20:31:21.445Z,24.48
2023-03-19T20:33:54.920Z,31.88
2023-03-19T20:36:21.587Z,33.20
2023-03-19T20:38:48.351Z,33.22
2023-03-19T20:41:27.971Z,29.88
2023-03-19T20:43:55.963Z,32.20
2023-03-19T20:46:29.998Z,31.38
2023-03-19T20:49:10.021Z,34.70
2023-03-19T20:51:36.759Z,30.83
2023-03-19T20:54:11.993Z,35.00
2023-03-19T20:56:53.114Z,33.42
2023-03-19T20:59:19.736Z,32.22
2023-03-19T21:01:53.021Z,35.67
2023-03-19T21:04:27.976Z,33.55
2023-03-19T21:07:00.946Z,34.22
2023-03-19T21:09:34.023Z,34.67
2023-03-19T21:12:07.000Z,33.45
2023-03-19T21:14:34.891Z,37.17
2023-03-19T21:17:08.065Z,35.10
2023-03-19T21:19:40.968Z,34.13
2023-03-19T21:22:22.035Z,35.13
2023-03-19T21:24:51.021Z,37.55
2023-03-19T21:27:34.023Z,34.58
2023-03-19T21:30:00.755Z,35.17
2023-03-19T21:32:34.119Z,29.02
2023-03-19T21:35:00.974Z,34.83
2023-03-19T21:37:34.034Z,37.00
2023-03-19T21:40:00.862Z,31.25
2023-03-19T21:42:35.968Z,35.17
2023-03-19T21:45:02.678Z,34.45
2023-03-19T21:47:43.039Z,32.30
2023-03-19T21:50:24.028Z,36.10
2023-03-19T21:53:01.273Z,32.60
2023-03-19T21:55:28.322Z,33.50
2023-03-19T21:58:04.037Z,32.80
2023-03-19T22:00:38.039Z,37.83
2023-03-19T22:03:11.029Z,34.85
2023-03-19T22:05:37.993Z,33.08
2023-03-19T22:08:11.050Z,35.63
2023-03-19T22:10:45.036Z,36.83
2023-03-19T22:13:29.115Z,39.67
2023-03-19T22:16:04.065Z,32.50
2023-03-19T22:18:30.666Z,34.88
2023-03-19T22:21:04.038Z,33.75
2023-03-19T22:23:30.746Z,40.97
2023-03-19T22:25:57.408Z,38.75
2023-03-19T22:28:39.041Z,35.78
2023-03-19T22:31:06.158Z,31.95
2023-03-19T22:33:39.067Z,38.28
2023-03-19T22:36:06.104Z,31.20
2023-03-19T22:38:39.079Z,34.60
2023-03-19T22:41:17.209Z,35.85
2023-03-19T22:43:52.023Z,36.30
2023-03-19T22:46:25.952Z,33.55
2023-03-19T22:48:59.001Z,29.98
2023-03-19T22:51:27.655Z,33.33
2023-03-19T22:54:02.001Z,32.58
2023-03-19T22:56:28.594Z,30.52
2023-03-19T22:59:03.103Z,30.35
2023-03-19T23:01:45.147Z,27.75
2023-03-19T23:04:27.067Z,31.77
2023-03-19T23:06:55.629Z,32.63
2023-03-19T23:09:38.093Z,32.63
2023-03-19T23:12:05.861Z,33.25
2023-03-19T23:14:39.151Z,26.60
2023-03-19T23:17:19.757Z,32.88
2023-03-19T23:19:53.112Z,30.55
2023-03-19T23:22:19.758Z,33.85
2023-03-19T23:24:53.149Z,28.75
2023-03-19T23:27:24.771Z,30.20
2023-03-19T23:29:59.025Z,31.65
2023-03-19T23:32:33.109Z,32.33
2023-03-19T23:35:06.120Z,30.65
2023-03-19T23:37:32.851Z,30.77
2023-03-19T23:40:06.157Z,30.23
2023-03-19T23:42:39.151Z,30.90
2023-03-19T23:45:06.735Z,30.50
2023-03-19T23:47:47.052Z,28.50
2023-03-19T23:50:13.896Z,28.98
2023-03-19T23:52:47.033Z,26.98
2023-03-19T23:55:13.728Z,27.63
2023-03-19T23:57:47.098Z,25.95
